sensor_id;sensor_type;location;lat;lon;timestamp;noise_LAeq;noise_LA_min;noise_LA_max;noise_LA01;noise_LA95
45964;Laerm;31671;48.092;11.842;2023-07-24T00:00:21;30.44;28.05;46.56;;
45964;Laerm;31671;48.092;11.842;2023-07-24T00:02:47;30.40;27.85;50.90;;
45964;Laerm;31671;48.092;11.842;2023-07-24T00:05:12;29.69;27.93;44.84;;
45964;Laerm;31671;48.092;11.842;2023-07-24T00:07:38;29.28;27.97;34.21;;
45964;Laerm;31671;48.092;11.842;2023-07-24T00:10:04;29.25;27.94;36.59;;
45964;Laerm;31671;48.092;11.842;2023-07-24T00:12:30;29.83;28.12;36.31;;
45964;Laerm;31671;48.092;11.842;2023-07-24T00:14:55;30.04;27.93;52.58;;
45964;Laerm;31671;48.092;11.842;2023-07-24T00:17:21;30.48;27.99;46.70;;
45964;Laerm;31671;48.092;11.842;2023-07-24T00:19:47;29.59;27.75;43.15;;
45964;Laerm;31671;48.092;11.842;2023-07-24T00:22:13;29.18;27.84;34.96;;
45964;Laerm;31671;48.092;11.842;2023-07-24T00:24:39;31.02;27.74;48.12;;
45964;Laerm;31671;48.092;11.842;2023-07-24T00:27:05;31.80;27.87;54.98;;
45964;Laerm;31671;48.092;11.842;2023-07-24T00:29:30;29.88;27.56;45.06;;
45964;Laerm;31671;48.092;11.842;2023-07-24T00:31:58;29.50;27.67;42.59;;
45964;Laerm;31671;48.092;11.842;2023-07-24T00:34:23;30.57;27.79;43.46;;
45964;Laerm;31671;48.092;11.842;2023-07-24T00:36:49;29.14;27.68;38.67;;
45964;Laerm;31671;48.092;11.842;2023-07-24T00:39:15;30.19;27.55;46.46;;
45964;Laerm;31671;48.092;11.842;2023-07-24T00:41:40;29.40;27.88;43.81;;
45964;Laerm;31671;48.092;11.842;2023-07-24T00:44:06;30.67;27.81;48.80;;
45964;Laerm;31671;48.092;11.842;2023-07-24T00:46:32;29.55;27.59;48.50;;
45964;Laerm;31671;48.092;11.842;2023-07-24T00:48:58;30.68;27.60;50.18;;
45964;Laerm;31671;48.092;11.842;2023-07-24T00:51:28;28.98;27.43;39.15;;
45964;Laerm;31671;48.092;11.842;2023-07-24T00:53:56;29.49;27.51;44.55;;
45964;Laerm;31671;48.092;11.842;2023-07-24T00:56:23;29.05;27.61;37.02;;
45964;Laerm;31671;48.092;11.842;2023-07-24T00:58:49;31.99;27.75;53.62;;
45964;Laerm;31671;48.092;11.842;2023-07-24T01:01:16;30.23;27.72;45.70;;
45964;Laerm;31671;48.092;11.842;2023-07-24T01:03:42;29.22;27.59;43.50;;
45964;Laerm;31671;48.092;11.842;2023-07-24T01:06:08;29.73;27.73;49.81;;
45964;Laerm;31671;48.092;11.842;2023-07-24T01:08:34;29.06;27.66;33.30;;
45964;Laerm;31671;48.092;11.842;2023-07-24T01:11:02;29.25;27.70;34.28;;
45964;Laerm;31671;48.092;11.842;2023-07-24T01:13:29;29.16;27.63;40.72;;
45964;Laerm;31671;48.092;11.842;2023-07-24T01:18:24;28.99;27.74;36.55;;
45964;Laerm;31671;48.092;11.842;2023-07-24T01:20:50;29.39;27.68;37.52;;
45964;Laerm;31671;48.092;11.842;2023-07-24T01:23:23;29.14;27.58;38.17;;
45964;Laerm;31671;48.092;11.842;2023-07-24T01:25:58;28.99;27.71;37.70;;
45964;Laerm;31671;48.092;11.842;2023-07-24T01:28:24;29.02;27.29;36.45;;
45964;Laerm;31671;48.092;11.842;2023-07-24T01:30:50;29.46;27.39;43.95;;
45964;Laerm;31671;48.092;11.842;2023-07-24T01:33:16;28.89;27.75;31.60;;
45964;Laerm;31671;48.092;11.842;2023-07-24T01:35:44;28.87;27.62;30.65;;
45964;Laerm;31671;48.092;11.842;2023-07-24T01:38:12;28.93;27.69;35.99;;
45964;Laerm;31671;48.092;11.842;2023-07-24T01:40:41;28.94;27.60;36.45;;
45964;Laerm;31671;48.092;11.842;2023-07-24T01:43:07;28.97;27.50;40.25;;
45964;Laerm;31671;48.092;11.842;2023-07-24T01:45:32;28.88;27.56;31.88;;
45964;Laerm;31671;48.092;11.842;2023-07-24T01:47:58;28.95;27.68;38.25;;
45964;Laerm;31671;48.092;11.842;2023-07-24T01:50:26;28.99;27.61;37.12;;
45964;Laerm;31671;48.092;11.842;2023-07-24T01:52:52;28.87;27.65;30.87;;
45964;Laerm;31671;48.092;11.842;2023-07-24T01:55:17;29.36;27.70;36.82;;
45964;Laerm;31671;48.092;11.842;2023-07-24T01:57:43;28.87;27.57;33.54;;
45964;Laerm;31671;48.092;11.842;2023-07-24T02:00:09;28.86;27.56;31.52;;
45964;Laerm;31671;48.092;11.842;2023-07-24T02:02:35;28.87;27.50;33.50;;
45964;Laerm;31671;48.092;11.842;2023-07-24T02:05:01;28.88;27.58;30.55;;
45964;Laerm;31671;48.092;11.842;2023-07-24T02:07:27;28.86;27.71;31.65;;
45964;Laerm;31671;48.092;11.842;2023-07-24T02:09:52;28.93;27.53;34.44;;
45964;Laerm;31671;48.092;11.842;2023-07-24T02:12:18;28.90;27.59;30.06;;
45964;Laerm;31671;48.092;11.842;2023-07-24T02:14:44;28.88;27.46;30.10;;
45964;Laerm;31671;48.092;11.842;2023-07-24T02:17:10;28.85;27.38;30.10;;
45964;Laerm;31671;48.092;11.842;2023-07-24T02:19:36;28.86;27.55;30.02;;
45964;Laerm;31671;48.092;11.842;2023-07-24T02:22:01;28.83;27.56;29.97;;
45964;Laerm;31671;48.092;11.842;2023-07-24T02:24:27;28.81;27.31;29.93;;
45964;Laerm;31671;48.092;11.842;2023-07-24T02:26:53;28.90;27.45;33.91;;
45964;Laerm;31671;48.092;11.842;2023-07-24T02:29:18;28.96;27.50;31.83;;
45964;Laerm;31671;48.092;11.842;2023-07-24T02:31:44;28.82;27.43;30.12;;
45964;Laerm;31671;48.092;11.842;2023-07-24T02:34:10;28.83;27.35;29.95;;
45964;Laerm;31671;48.092;11.842;2023-07-24T02:36:35;29.01;27.50;32.30;;
45964;Laerm;31671;48.092;11.842;2023-07-24T02:39:01;28.81;27.31;30.18;;
45964;Laerm;31671;48.092;11.842;2023-07-24T02:41:27;28.80;27.47;29.99;;
45964;Laerm;31671;48.092;11.842;2023-07-24T02:43:53;28.79;27.59;29.94;;
45964;Laerm;31671;48.092;11.842;2023-07-24T02:46:18;28.84;27.32;31.83;;
45964;Laerm;31671;48.092;11.842;2023-07-24T02:48:44;28.79;27.44;30.15;;
45964;Laerm;31671;48.092;11.842;2023-07-24T02:51:10;28.80;27.60;30.21;;
45964;Laerm;31671;48.092;11.842;2023-07-24T02:53:36;28.80;27.33;29.93;;
45964;Laerm;31671;48.092;11.842;2023-07-24T02:56:02;28.82;27.38;30.56;;
45964;Laerm;31671;48.092;11.842;2023-07-24T02:58:28;28.88;27.20;30.67;;
45964;Laerm;31671;48.092;11.842;2023-07-24T03:00:54;28.95;27.62;31.90;;
45964;Laerm;31671;48.092;11.842;2023-07-24T03:03:19;28.77;27.55;30.15;;
45964;Laerm;31671;48.092;11.842;2023-07-24T03:05:45;28.84;27.42;29.92;;
45964;Laerm;31671;48.092;11.842;2023-07-24T03:08:11;28.80;27.44;29.94;;
45964;Laerm;31671;48.092;11.842;2023-07-24T03:10:39;28.81;27.50;30.51;;
45964;Laerm;31671;48.092;11.842;2023-07-24T03:13:05;28.80;27.21;29.98;;
45964;Laerm;31671;48.092;11.842;2023-07-24T03:15:30;28.80;27.52;30.61;;
45964;Laerm;31671;48.092;11.842;2023-07-24T03:17:56;28.80;27.44;30.49;;
45964;Laerm;31671;48.092;11.842;2023-07-24T03:20:22;28.85;27.49;38.53;;
45964;Laerm;31671;48.092;11.842;2023-07-24T03:22:47;29.19;27.61;43.59;;
45964;Laerm;31671;48.092;11.842;2023-07-24T03:25:13;31.46;27.69;45.85;;
45964;Laerm;31671;48.092;11.842;2023-07-24T03:27:39;34.35;29.26;48.52;;
45964;Laerm;31671;48.092;11.842;2023-07-24T03:30:05;31.39;28.84;39.70;;
45964;Laerm;31671;48.092;11.842;2023-07-24T03:32:31;29.54;27.89;34.29;;
45964;Laerm;31671;48.092;11.842;2023-07-24T03:34:56;29.11;27.57;35.23;;
45964;Laerm;31671;48.092;11.842;2023-07-24T03:37:22;28.88;27.64;30.73;;
45964;Laerm;31671;48.092;11.842;2023-07-24T03:39:48;28.93;27.39;33.48;;
45964;Laerm;31671;48.092;11.842;2023-07-24T03:42:24;28.88;27.64;31.28;;
45964;Laerm;31671;48.092;11.842;2023-07-24T03:44:49;28.82;27.49;30.63;;
45964;Laerm;31671;48.092;11.842;2023-07-24T03:47:15;28.92;27.66;32.47;;
45964;Laerm;31671;48.092;11.842;2023-07-24T03:49:41;28.87;26.94;36.52;;
45964;Laerm;31671;48.092;11.842;2023-07-24T03:52:06;29.04;27.60;36.77;;
45964;Laerm;31671;48.092;11.842;2023-07-24T03:54:32;28.91;27.58;30.45;;
45964;Laerm;31671;48.092;11.842;2023-07-24T03:56:58;29.06;27.80;31.55;;
45964;Laerm;31671;48.092;11.842;2023-07-24T03:59:23;29.19;27.74;49.68;;
45964;Laerm;31671;48.092;11.842;2023-07-24T04:01:49;29.15;27.69;35.96;;
45964;Laerm;31671;48.092;11.842;2023-07-24T04:04:15;29.37;27.89;46.47;;
45964;Laerm;31671;48.092;11.842;2023-07-24T04:06:40;29.08;27.83;31.34;;
45964;Laerm;31671;48.092;11.842;2023-07-24T04:09:06;30.33;27.92;38.02;;
45964;Laerm;31671;48.092;11.842;2023-07-24T04:11:32;29.32;27.90;32.31;;
45964;Laerm;31671;48.092;11.842;2023-07-24T04:13:57;29.52;27.87;37.03;;
45964;Laerm;31671;48.092;11.842;2023-07-24T04:16:23;29.39;27.83;33.74;;
45964;Laerm;31671;48.092;11.842;2023-07-24T04:18:49;29.45;27.63;44.83;;
45964;Laerm;31671;48.092;11.842;2023-07-24T04:21:14;29.30;27.93;33.03;;
45964;Laerm;31671;48.092;11.842;2023-07-24T04:23:40;29.31;27.62;31.60;;
45964;Laerm;31671;48.092;11.842;2023-07-24T04:26:06;29.88;28.03;35.29;;
45964;Laerm;31671;48.092;11.842;2023-07-24T04:28:31;29.37;27.84;36.93;;
45964;Laerm;31671;48.092;11.842;2023-07-24T04:31:00;29.49;27.89;46.46;;
45964;Laerm;31671;48.092;11.842;2023-07-24T04:33:26;29.39;27.65;34.18;;
45964;Laerm;31671;48.092;11.842;2023-07-24T04:35:51;29.18;27.79;38.26;;
45964;Laerm;31671;48.092;11.842;2023-07-24T04:38:17;29.32;27.96;34.29;;
45964;Laerm;31671;48.092;11.842;2023-07-24T04:40:45;29.20;27.82;31.70;;
45964;Laerm;31671;48.092;11.842;2023-07-24T04:43:11;29.23;27.67;34.18;;
45964;Laerm;31671;48.092;11.842;2023-07-24T04:45:37;29.36;27.98;32.45;;
45964;Laerm;31671;48.092;11.842;2023-07-24T04:48:02;30.02;27.84;37.31;;
45964;Laerm;31671;48.092;11.842;2023-07-24T04:50:28;29.90;27.97;36.70;;
45964;Laerm;31671;48.092;11.842;2023-07-24T04:52:54;29.69;28.09;38.16;;
45964;Laerm;31671;48.092;11.842;2023-07-24T04:55:19;29.47;27.85;33.48;;
45964;Laerm;31671;48.092;11.842;2023-07-24T04:57:45;29.75;28.13;41.72;;
45964;Laerm;31671;48.092;11.842;2023-07-24T05:00:11;29.40;27.82;33.83;;
45964;Laerm;31671;48.092;11.842;2023-07-24T05:02:37;29.70;27.72;38.50;;
45964;Laerm;31671;48.092;11.842;2023-07-24T05:05:02;29.92;27.92;43.39;;
45964;Laerm;31671;48.092;11.842;2023-07-24T05:07:28;29.40;27.82;31.85;;
45964;Laerm;31671;48.092;11.842;2023-07-24T05:09:54;29.60;28.02;34.31;;
45964;Laerm;31671;48.092;11.842;2023-07-24T05:12:20;29.44;27.68;35.18;;
45964;Laerm;31671;48.092;11.842;2023-07-24T05:14:45;29.37;28.01;32.10;;
45964;Laerm;31671;48.092;11.842;2023-07-24T05:17:11;29.66;27.56;34.53;;
45964;Laerm;31671;48.092;11.842;2023-07-24T05:19:37;29.35;27.96;31.63;;
45964;Laerm;31671;48.092;11.842;2023-07-24T05:22:02;29.27;27.50;39.46;;
45964;Laerm;31671;48.092;11.842;2023-07-24T05:24:28;29.19;27.76;38.11;;
45964;Laerm;31671;48.092;11.842;2023-07-24T05:26:54;29.20;27.58;32.18;;
45964;Laerm;31671;48.092;11.842;2023-07-24T05:29:20;29.52;27.75;39.60;;
45964;Laerm;31671;48.092;11.842;2023-07-24T05:31:45;29.36;27.89;32.55;;
45964;Laerm;31671;48.092;11.842;2023-07-24T05:34:11;29.47;27.84;33.14;;
45964;Laerm;31671;48.092;11.842;2023-07-24T05:36:37;29.22;27.77;37.43;;
45964;Laerm;31671;48.092;11.842;2023-07-24T05:39:02;29.25;27.80;41.47;;
45964;Laerm;31671;48.092;11.842;2023-07-24T05:41:28;29.79;27.68;41.26;;
45964;Laerm;31671;48.092;11.842;2023-07-24T05:43:54;29.61;27.78;41.96;;
45964;Laerm;31671;48.092;11.842;2023-07-24T05:46:19;30.89;27.94;44.69;;
45964;Laerm;31671;48.092;11.842;2023-07-24T05:48:45;29.43;27.74;39.27;;
45964;Laerm;31671;48.092;11.842;2023-07-24T05:51:11;29.06;27.62;32.46;;
45964;Laerm;31671;48.092;11.842;2023-07-24T05:53:37;29.68;27.63;38.41;;
45964;Laerm;31671;48.092;11.842;2023-07-24T05:56:02;34.66;27.58;61.52;;
45964;Laerm;31671;48.092;11.842;2023-07-24T05:58:28;32.65;27.89;49.58;;
45964;Laerm;31671;48.092;11.842;2023-07-24T06:00:54;30.59;27.88;46.96;;
45964;Laerm;31671;48.092;11.842;2023-07-24T06:03:20;30.32;27.97;46.00;;
45964;Laerm;31671;48.092;11.842;2023-07-24T06:05:45;29.60;28.02;41.09;;
45964;Laerm;31671;48.092;11.842;2023-07-24T06:08:11;32.03;27.99;52.13;;
45964;Laerm;31671;48.092;11.842;2023-07-24T06:10:37;29.58;27.93;43.82;;
45964;Laerm;31671;48.092;11.842;2023-07-24T06:13:05;29.45;28.00;39.61;;
45964;Laerm;31671;48.092;11.842;2023-07-24T06:15:40;30.14;27.86;41.97;;
45964;Laerm;31671;48.092;11.842;2023-07-24T06:18:06;29.63;28.07;38.38;;
45964;Laerm;31671;48.092;11.842;2023-07-24T06:20:31;30.24;28.21;41.80;;
45964;Laerm;31671;48.092;11.842;2023-07-24T06:22:57;31.07;28.42;45.59;;
45964;Laerm;31671;48.092;11.842;2023-07-24T06:25:23;33.73;28.23;56.01;;
45964;Laerm;31671;48.092;11.842;2023-07-24T06:27:48;32.01;27.96;48.07;;
45964;Laerm;31671;48.092;11.842;2023-07-24T06:30:14;35.78;28.00;54.46;;
45964;Laerm;31671;48.092;11.842;2023-07-24T06:32:40;37.75;27.46;58.72;;
45964;Laerm;31671;48.092;11.842;2023-07-24T06:35:06;37.83;27.86;56.73;;
45964;Laerm;31671;48.092;11.842;2023-07-24T06:37:31;33.03;28.13;55.99;;
45964;Laerm;31671;48.092;11.842;2023-07-24T06:39:57;29.81;28.03;39.13;;
45964;Laerm;31671;48.092;11.842;2023-07-24T06:42:23;36.71;28.34;57.41;;
45964;Laerm;31671;48.092;11.842;2023-07-24T06:44:48;40.83;28.48;62.91;;
45964;Laerm;31671;48.092;11.842;2023-07-24T06:47:14;46.09;28.63;67.89;;
45964;Laerm;31671;48.092;11.842;2023-07-24T06:49:40;34.55;28.47;55.31;;
45964;Laerm;31671;48.092;11.842;2023-07-24T06:52:06;38.20;28.36;55.63;;
45964;Laerm;31671;48.092;11.842;2023-07-24T06:54:31;36.16;28.37;57.44;;
45964;Laerm;31671;48.092;11.842;2023-07-24T06:56:57;43.19;28.67;67.99;;
45964;Laerm;31671;48.092;11.842;2023-07-24T06:59:23;30.98;28.43;46.43;;
45964;Laerm;31671;48.092;11.842;2023-07-24T07:01:48;41.94;28.78;62.28;;
45964;Laerm;31671;48.092;11.842;2023-07-24T07:04:14;30.76;28.38;45.43;;
45964;Laerm;31671;48.092;11.842;2023-07-24T07:06:40;31.48;28.55;44.96;;
45964;Laerm;31671;48.092;11.842;2023-07-24T07:09:05;34.74;28.51;54.52;;
45964;Laerm;31671;48.092;11.842;2023-07-24T07:11:31;32.81;28.54;53.73;;
45964;Laerm;31671;48.092;11.842;2023-07-24T07:13:57;39.43;28.62;60.74;;
45964;Laerm;31671;48.092;11.842;2023-07-24T07:16:23;30.13;28.62;40.06;;
45964;Laerm;31671;48.092;11.842;2023-07-24T07:18:48;30.16;28.62;41.28;;
45964;Laerm;31671;48.092;11.842;2023-07-24T07:21:14;31.56;28.20;48.51;;
45964;Laerm;31671;48.092;11.842;2023-07-24T07:23:40;33.99;28.61;54.92;;
45964;Laerm;31671;48.092;11.842;2023-07-24T07:26:05;44.25;28.50;67.98;;
45964;Laerm;31671;48.092;11.842;2023-07-24T07:28:31;31.55;28.73;48.78;;
45964;Laerm;31671;48.092;11.842;2023-07-24T07:30:57;34.22;28.68;57.61;;
45964;Laerm;31671;48.092;11.842;2023-07-24T07:33:22;32.55;28.71;54.35;;
45964;Laerm;31671;48.092;11.842;2023-07-24T07:35:48;29.83;28.58;32.20;;
45964;Laerm;31671;48.092;11.842;2023-07-24T07:38:14;29.80;28.51;36.66;;
45964;Laerm;31671;48.092;11.842;2023-07-24T07:40:40;29.80;28.40;36.74;;
45964;Laerm;31671;48.092;11.842;2023-07-24T07:43:05;29.80;28.55;32.02;;
45964;Laerm;31671;48.092;11.842;2023-07-24T07:45:31;29.78;28.55;31.38;;
45964;Laerm;31671;48.092;11.842;2023-07-24T07:47:57;29.72;28.47;32.31;;
45964;Laerm;31671;48.092;11.842;2023-07-24T07:50:22;29.72;28.24;37.20;;
45964;Laerm;31671;48.092;11.842;2023-07-24T07:52:51;29.84;28.32;35.75;;
45964;Laerm;31671;48.092;11.842;2023-07-24T07:55:18;29.80;28.22;35.80;;
45964;Laerm;31671;48.092;11.842;2023-07-24T07:57:44;29.59;28.16;37.97;;
45964;Laerm;31671;48.092;11.842;2023-07-24T08:00:10;30.98;28.32;55.29;;
45964;Laerm;31671;48.092;11.842;2023-07-24T08:02:35;34.18;28.27;57.96;;
45964;Laerm;31671;48.092;11.842;2023-07-24T08:05:01;33.57;28.81;60.44;;
45964;Laerm;31671;48.092;11.842;2023-07-24T08:07:27;29.90;28.47;45.08;;
45964;Laerm;31671;48.092;11.842;2023-07-24T08:09:52;29.67;28.11;37.89;;
45964;Laerm;31671;48.092;11.842;2023-07-24T08:12:18;29.93;28.52;40.60;;
45964;Laerm;31671;48.092;11.842;2023-07-24T08:14:44;30.07;28.47;45.53;;
45964;Laerm;31671;48.092;11.842;2023-07-24T08:17:09;30.02;28.43;36.49;;
45964;Laerm;31671;48.092;11.842;2023-07-24T08:19:35;29.73;28.48;41.04;;
45964;Laerm;31671;48.092;11.842;2023-07-24T08:22:01;29.96;28.53;43.81;;
45964;Laerm;31671;48.092;11.842;2023-07-24T08:24:26;29.94;28.52;36.74;;
45964;Laerm;31671;48.092;11.842;2023-07-24T08:26:52;30.94;28.71;55.73;;
45964;Laerm;31671;48.092;11.842;2023-07-24T08:29:18;30.22;28.58;36.59;;
45964;Laerm;31671;48.092;11.842;2023-07-24T08:31:43;30.06;28.75;40.52;;
45964;Laerm;31671;48.092;11.842;2023-07-24T08:34:09;31.07;28.40;53.18;;
45964;Laerm;31671;48.092;11.842;2023-07-24T08:36:35;30.02;28.43;37.45;;
45964;Laerm;31671;48.092;11.842;2023-07-24T08:39:00;30.04;28.46;45.21;;
45964;Laerm;31671;48.092;11.842;2023-07-24T08:41:26;29.97;28.54;42.39;;
45964;Laerm;31671;48.092;11.842;2023-07-24T08:43:52;29.86;28.55;39.89;;
45964;Laerm;31671;48.092;11.842;2023-07-24T08:46:17;29.78;28.35;32.76;;
45964;Laerm;31671;48.092;11.842;2023-07-24T08:48:43;29.68;28.42;37.15;;
45964;Laerm;31671;48.092;11.842;2023-07-24T08:51:10;29.73;28.51;38.74;;
45964;Laerm;31671;48.092;11.842;2023-07-24T08:53:36;29.69;28.38;36.51;;
45964;Laerm;31671;48.092;11.842;2023-07-24T08:56:03;29.58;28.11;35.69;;
45964;Laerm;31671;48.092;11.842;2023-07-24T08:58:29;29.58;28.27;35.43;;
45964;Laerm;31671;48.092;11.842;2023-07-24T09:00:57;29.49;28.31;34.70;;
45964;Laerm;31671;48.092;11.842;2023-07-24T09:03:23;29.56;28.23;31.31;;
45964;Laerm;31671;48.092;11.842;2023-07-24T09:05:49;29.43;28.17;30.82;;
45964;Laerm;31671;48.092;11.842;2023-07-24T09:08:15;29.40;28.22;30.66;;
45964;Laerm;31671;48.092;11.842;2023-07-24T09:10:40;29.48;28.28;32.34;;
45964;Laerm;31671;48.092;11.842;2023-07-24T09:13:06;29.91;28.17;35.45;;
45964;Laerm;31671;48.092;11.842;2023-07-24T09:15:44;29.40;28.20;31.64;;
45964;Laerm;31671;48.092;11.842;2023-07-24T09:18:09;29.40;28.17;30.97;;
45964;Laerm;31671;48.092;11.842;2023-07-24T09:20:39;29.34;28.17;30.66;;
45964;Laerm;31671;48.092;11.842;2023-07-24T09:23:05;29.31;27.92;30.62;;
45964;Laerm;31671;48.092;11.842;2023-07-24T09:25:31;29.73;28.16;34.24;;
45964;Laerm;31671;48.092;11.842;2023-07-24T09:27:59;29.40;27.97;31.14;;
45964;Laerm;31671;48.092;11.842;2023-07-24T09:30:25;29.64;27.84;35.37;;
45964;Laerm;31671;48.092;11.842;2023-07-24T09:32:52;29.99;28.19;36.81;;
45964;Laerm;31671;48.092;11.842;2023-07-24T09:35:18;29.77;28.00;42.02;;
45964;Laerm;31671;48.092;11.842;2023-07-24T09:37:44;29.40;28.13;37.26;;
45964;Laerm;31671;48.092;11.842;2023-07-24T09:40:10;29.56;27.89;38.88;;
45964;Laerm;31671;48.092;11.842;2023-07-24T09:42:36;29.72;28.31;39.42;;
45964;Laerm;31671;48.092;11.842;2023-07-24T09:45:03;29.91;28.49;38.54;;
45964;Laerm;31671;48.092;11.842;2023-07-24T09:47:29;29.95;28.49;38.10;;
45964;Laerm;31671;48.092;11.842;2023-07-24T09:49:54;29.91;28.43;39.57;;
45964;Laerm;31671;48.092;11.842;2023-07-24T09:52:20;36.37;28.49;61.49;;
45964;Laerm;31671;48.092;11.842;2023-07-24T09:54:49;30.70;28.50;48.57;;
45964;Laerm;31671;48.092;11.842;2023-07-24T09:57:20;34.54;28.47;55.18;;
45964;Laerm;31671;48.092;11.842;2023-07-24T09:59:46;31.01;28.48;46.91;;
45964;Laerm;31671;48.092;11.842;2023-07-24T10:02:12;30.53;28.26;45.40;;
45964;Laerm;31671;48.092;11.842;2023-07-24T10:04:38;29.65;28.04;40.94;;
45964;Laerm;31671;48.092;11.842;2023-07-24T10:07:04;29.29;27.52;33.23;;
45964;Laerm;31671;48.092;11.842;2023-07-24T10:09:30;29.60;27.88;34.57;;
45964;Laerm;31671;48.092;11.842;2023-07-24T10:11:56;29.73;27.67;47.04;;
45964;Laerm;31671;48.092;11.842;2023-07-24T10:14:22;28.94;27.51;36.28;;
45964;Laerm;31671;48.092;11.842;2023-07-24T10:16:48;28.88;27.58;30.34;;
45964;Laerm;31671;48.092;11.842;2023-07-24T10:19:15;29.16;27.65;39.86;;
45964;Laerm;31671;48.092;11.842;2023-07-24T10:21:44;28.93;27.74;31.05;;
45964;Laerm;31671;48.092;11.842;2023-07-24T10:24:10;34.98;27.63;57.14;;
45964;Laerm;31671;48.092;11.842;2023-07-24T10:26:35;40.74;28.03;64.26;;
45964;Laerm;31671;48.092;11.842;2023-07-24T10:29:01;30.63;27.56;45.12;;
45964;Laerm;31671;48.092;11.842;2023-07-24T10:31:27;34.31;27.92;55.56;;
45964;Laerm;31671;48.092;11.842;2023-07-24T10:33:52;33.60;28.21;53.00;;
45964;Laerm;31671;48.092;11.842;2023-07-24T10:36:19;30.53;27.97;44.63;;
45964;Laerm;31671;48.092;11.842;2023-07-24T10:38:45;41.78;28.29;61.84;;
45964;Laerm;31671;48.092;11.842;2023-07-24T10:41:11;37.62;28.27;59.57;;
45964;Laerm;31671;48.092;11.842;2023-07-24T10:46:09;34.53;27.99;54.46;;
45964;Laerm;31671;48.092;11.842;2023-07-24T10:48:34;33.29;28.06;53.80;;
45964;Laerm;31671;48.092;11.842;2023-07-24T10:51:05;29.56;28.03;38.22;;
45964;Laerm;31671;48.092;11.842;2023-07-24T10:53:31;37.74;28.11;61.16;;
45964;Laerm;31671;48.092;11.842;2023-07-24T10:55:57;29.82;28.27;42.66;;
45964;Laerm;31671;48.092;11.842;2023-07-24T10:58:24;29.88;28.19;41.00;;
45964;Laerm;31671;48.092;11.842;2023-07-24T11:00:50;30.07;27.93;47.06;;
45964;Laerm;31671;48.092;11.842;2023-07-24T11:03:16;31.06;28.10;48.73;;
45964;Laerm;31671;48.092;11.842;2023-07-24T11:05:42;31.27;28.12;46.23;;
45964;Laerm;31671;48.092;11.842;2023-07-24T11:08:18;30.30;28.17;37.55;;
45964;Laerm;31671;48.092;11.842;2023-07-24T11:10:47;29.97;28.05;39.59;;
45964;Laerm;31671;48.092;11.842;2023-07-24T11:13:13;30.04;28.05;45.29;;
45964;Laerm;31671;48.092;11.842;2023-07-24T11:15:42;30.63;28.10;47.65;;
45964;Laerm;31671;48.092;11.842;2023-07-24T11:18:08;35.11;28.19;55.32;;
45964;Laerm;31671;48.092;11.842;2023-07-24T11:20:53;29.66;27.83;44.89;;
45964;Laerm;31671;48.092;11.842;2023-07-24T11:23:19;29.29;27.63;40.95;;
45964;Laerm;31671;48.092;11.842;2023-07-24T11:25:45;34.10;27.56;53.82;;
45964;Laerm;31671;48.092;11.842;2023-07-24T11:28:11;33.07;27.62;54.35;;
45964;Laerm;31671;48.092;11.842;2023-07-24T11:30:37;29.43;27.33;45.04;;
45964;Laerm;31671;48.092;11.842;2023-07-24T11:33:03;29.44;27.53;44.74;;
45964;Laerm;31671;48.092;11.842;2023-07-24T11:35:30;32.55;27.70;55.09;;
45964;Laerm;31671;48.092;11.842;2023-07-24T11:37:56;32.10;27.69;50.62;;
45964;Laerm;31671;48.092;11.842;2023-07-24T11:40:29;42.99;27.64;65.69;;
45964;Laerm;31671;48.092;11.842;2023-07-24T11:42:55;32.71;27.61;55.12;;
45964;Laerm;31671;48.092;11.842;2023-07-24T11:45:21;29.52;27.73;39.73;;
45964;Laerm;31671;48.092;11.842;2023-07-24T11:47:47;29.85;27.81;46.94;;
45964;Laerm;31671;48.092;11.842;2023-07-24T11:50:14;31.27;27.74;45.55;;
45964;Laerm;31671;48.092;11.842;2023-07-24T11:52:43;30.88;27.74;49.36;;
45964;Laerm;31671;48.092;11.842;2023-07-24T11:55:12;32.22;27.98;53.60;;
45964;Laerm;31671;48.092;11.842;2023-07-24T11:57:37;29.11;27.72;40.37;;
45964;Laerm;31671;48.092;11.842;2023-07-24T12:00:04;28.89;27.42;39.59;;
45964;Laerm;31671;48.092;11.842;2023-07-24T12:02:33;29.14;27.24;41.87;;
45964;Laerm;31671;48.092;11.842;2023-07-24T12:04:59;28.94;27.82;33.15;;
45964;Laerm;31671;48.092;11.842;2023-07-24T12:07:34;28.89;27.64;30.74;;
45964;Laerm;31671;48.092;11.842;2023-07-24T12:10:01;29.06;27.29;41.10;;
45964;Laerm;31671;48.092;11.842;2023-07-24T12:12:36;29.19;27.53;40.80;;
45964;Laerm;31671;48.092;11.842;2023-07-24T12:15:02;30.83;27.76;49.73;;
45964;Laerm;31671;48.092;11.842;2023-07-24T12:17:27;29.07;27.81;33.48;;
45964;Laerm;31671;48.092;11.842;2023-07-24T12:19:53;31.26;27.75;50.52;;
45964;Laerm;31671;48.092;11.842;2023-07-24T12:22:19;29.37;27.65;42.19;;
45964;Laerm;31671;48.092;11.842;2023-07-24T12:24:44;28.95;27.34;36.36;;
45964;Laerm;31671;48.092;11.842;2023-07-24T12:27:10;29.31;27.61;44.66;;
45964;Laerm;31671;48.092;11.842;2023-07-24T12:29:36;29.51;27.63;38.34;;
45964;Laerm;31671;48.092;11.842;2023-07-24T12:32:01;29.01;27.77;35.69;;
45964;Laerm;31671;48.092;11.842;2023-07-24T12:34:27;29.07;27.83;34.16;;
45964;Laerm;31671;48.092;11.842;2023-07-24T12:36:53;29.22;27.64;34.20;;
45964;Laerm;31671;48.092;11.842;2023-07-24T12:39:18;29.44;27.93;35.22;;
45964;Laerm;31671;48.092;11.842;2023-07-24T12:41:44;29.55;28.16;39.36;;
45964;Laerm;31671;48.092;11.842;2023-07-24T12:44:10;30.58;28.40;49.24;;
45964;Laerm;31671;48.092;11.842;2023-07-24T12:46:35;30.29;28.46;39.82;;
45964;Laerm;31671;48.092;11.842;2023-07-24T12:49:01;31.84;28.72;52.61;;
45964;Laerm;31671;48.092;11.842;2023-07-24T12:51:27;30.86;28.65;45.51;;
45964;Laerm;31671;48.092;11.842;2023-07-24T12:53:52;30.72;27.94;45.63;;
45964;Laerm;31671;48.092;11.842;2023-07-24T12:56:18;36.31;28.37;55.40;;
45964;Laerm;31671;48.092;11.842;2023-07-24T12:58:44;31.95;29.27;47.29;;
45964;Laerm;31671;48.092;11.842;2023-07-24T13:01:09;34.11;31.16;42.59;;
45964;Laerm;31671;48.092;11.842;2023-07-24T13:03:35;32.35;28.13;37.03;;
45964;Laerm;31671;48.092;11.842;2023-07-24T13:06:01;29.29;27.66;35.20;;
45964;Laerm;31671;48.092;11.842;2023-07-24T13:08:26;29.70;27.73;39.36;;
45964;Laerm;31671;48.092;11.842;2023-07-24T13:10:52;29.38;27.66;35.32;;
45964;Laerm;31671;48.092;11.842;2023-07-24T13:13:18;29.66;27.58;38.59;;
45964;Laerm;31671;48.092;11.842;2023-07-24T13:15:43;29.08;27.63;32.35;;
45964;Laerm;31671;48.092;11.842;2023-07-24T13:18:09;29.03;27.50;31.93;;
45964;Laerm;31671;48.092;11.842;2023-07-24T13:20:35;29.75;27.59;41.36;;
45964;Laerm;31671;48.092;11.842;2023-07-24T13:23:00;28.98;27.71;35.65;;
45964;Laerm;31671;48.092;11.842;2023-07-24T13:25:26;28.95;27.64;31.17;;
45964;Laerm;31671;48.092;11.842;2023-07-24T13:27:52;29.20;27.77;34.49;;
45964;Laerm;31671;48.092;11.842;2023-07-24T13:30:17;29.18;27.55;34.92;;